Time;durP1;ratioP1;P1;durP2;ratioP2;P2;SDS_P1;SDS_P2;PMS_P1;PMS_P2;Temp;Humidity;BMP_temperature;BMP_pressure;BME280_temperature;BME280_humidity;BME280_pressure;Samples;Min_cycle;Max_cycle;Signal;HPM_P1;HPM_P2
2021/10/21 00:02:01;;;;;;;4.57;2.10;;;;;;;12.56;100.00;98872.34;4967938;28;20018;-78
2021/10/21 00:04:28;;;;;;;7.80;2.20;;;13.80;99.90;;;12.55;100.00;98875.94;4927231;28;20093;-78
2021/10/21 00:06:54;;;;;;;4.05;2.17;;;13.70;99.90;;;12.55;100.00;98870.66;4920801;28;20133;-78
2021/10/21 00:09:20;;;;;;;3.35;1.90;;;13.80;99.90;;;12.57;100.00;98860.81;4965887;28;20094;-79
2021/10/21 00:11:46;;;;;;;6.82;2.45;;;13.80;99.90;;;12.60;100.00;98852.63;4950051;28;20058;-78
2021/10/21 00:14:13;;;;;;;8.45;2.20;;;13.80;99.90;;;12.58;100.00;98844.00;4978908;28;20542;-78
2021/10/21 00:16:39;;;;;;;6.50;2.35;;;13.80;99.90;;;12.59;100.00;98845.66;4978927;28;21107;-79
2021/10/21 00:19:08;;;;;;;11.48;2.42;;;13.80;99.90;;;12.56;100.00;98822.19;4937720;28;20215;-78
2021/10/21 00:21:34;;;;;;;3.63;1.70;;;13.80;99.90;;;12.62;100.00;98821.66;4959816;28;20066;-78
2021/10/21 00:24:00;;;;;;;6.57;1.98;;;13.90;99.90;;;12.56;100.00;98830.94;4972123;28;20172;-78
2021/10/21 00:26:26;;;;;;;3.60;2.20;;;13.80;99.90;;;12.54;100.00;98830.22;4956606;28;20041;-78
2021/10/21 00:28:52;;;;;;;6.03;1.95;;;13.80;99.90;;;12.58;100.00;98825.53;4947253;28;20892;-78
2021/10/21 00:31:20;;;;;;;4.50;2.10;;;13.90;99.90;;;12.75;100.00;98839.94;4949623;28;20460;-78
2021/10/21 00:33:46;;;;;;;9.25;2.60;;;14.10;99.90;;;12.88;100.00;98828.19;4959511;28;20150;-79
2021/10/21 00:36:12;;;;;;;4.55;1.95;;;14.10;99.90;;;12.99;100.00;98832.53;4942110;28;20031;-79
2021/10/21 00:38:38;;;;;;;7.28;2.20;;;14.20;99.90;;;12.95;100.00;98812.63;4994941;28;20031;-78
2021/10/21 00:41:04;;;;;;;4.78;1.80;;;14.30;99.90;;;13.04;99.71;98816.28;4953282;28;20565;-78
2021/10/21 00:43:39;;;;;;;6.07;1.90;;;14.30;99.90;;;12.99;99.49;98795.53;4939988;28;20022;-78
2021/10/21 00:46:11;;;;;;;5.38;1.73;;;14.20;99.90;;;12.99;99.82;98798.19;4968874;28;20479;-79
2021/10/21 00:48:39;;;;;;;6.38;1.90;;;14.20;99.90;;;12.89;99.76;98792.88;4963003;28;20037;-78
2021/10/21 00:51:10;;;;;;;9.10;2.80;;;14.20;99.90;;;12.90;100.00;98785.78;4975765;28;20072;-78
2021/10/21 00:53:38;;;;;;;6.38;2.17;;;14.20;99.90;;;12.94;99.69;98781.91;4958094;28;20076;-78
2021/10/21 00:56:08;;;;;;;5.55;1.95;;;14.10;99.90;;;12.77;100.00;98762.25;4969816;28;21761;-78
2021/10/21 00:58:35;;;;;;;8.32;2.03;;;14.00;99.90;;;12.68;100.00;98763.06;4973761;28;20034;-78
2021/10/21 01:01:01;;;;;;;5.68;1.92;;;13.90;99.90;;;12.57;100.00;98745.50;4945921;28;20037;-78
2021/10/21 01:03:28;;;;;;;7.05;2.10;;;13.80;99.90;;;12.51;100.00;98757.41;4962105;28;20070;-78
2021/10/21 01:05:54;;;;;;;7.03;2.42;;;13.80;99.90;;;12.44;100.00;98764.19;4981162;28;20113;-78
2021/10/21 01:08:20;;;;;;;5.18;2.50;;;13.70;99.90;;;12.42;100.00;98763.50;4991374;28;20057;-78
2021/10/21 01:10:48;;;;;;;5.45;2.95;;;13.70;99.90;;;12.40;100.00;98757.50;4945603;28;20827;-78
2021/10/21 01:13:16;;;;;;;4.15;2.25;;;14.30;99.90;;;12.45;100.00;98757.94;4982584;28;20237;-78
2021/10/21 01:15:42;;;;;;;4.60;2.55;;;13.70;99.90;;;12.42;100.00;98731.81;4981622;28;20498;-78
2021/10/21 01:18:08;;;;;;;5.45;2.13;;;13.60;99.90;;;12.35;100.00;98738.56;4973572;28;20122;-78
2021/10/21 01:20:34;;;;;;;3.50;2.35;;;13.60;99.90;;;12.35;100.00;98716.63;4981676;28;20041;-78
2021/10/21 01:23:00;;;;;;;3.35;2.10;;;13.60;99.90;;;12.37;100.00;98712.88;4966149;28;20054;-78
2021/10/21 01:25:26;;;;;;;5.68;2.08;;;13.60;99.90;;;12.38;100.00;98698.72;4938095;28;20072;-78
2021/10/21 01:27:55;;;;;;;3.38;2.22;;;13.70;99.90;;;12.41;100.00;98684.44;4948236;28;20027;-78
2021/10/21 01:30:25;;;;;;;4.38;2.00;;;13.60;99.90;;;12.35;100.00;98662.03;4937035;28;20566;-78
2021/10/21 01:32:56;;;;;;;4.40;1.95;;;13.60;99.90;;;12.35;100.00;98648.84;4945043;28;20031;-78
2021/10/21 01:35:23;;;;;;;3.72;1.73;;;13.60;99.90;;;12.27;100.00;98624.94;4966651;28;20484;-78
2021/10/21 01:37:50;;;;;;;4.22;2.00;;;13.50;99.90;;;12.21;100.00;98617.56;4973310;28;20579;-78
2021/10/21 01:40:18;;;;;;;3.33;2.08;;;13.40;99.90;;;12.14;100.00;98622.53;4963594;28;20422;-78
2021/10/21 01:42:45;;;;;;;3.38;1.52;;;13.30;99.90;;;12.10;100.00;98607.94;4931001;28;20039;-78
2021/10/21 01:45:30;;;;;;;3.45;1.70;;;13.30;99.90;;;12.11;100.00;98601.69;4981604;28;20075;-78
2021/10/21 01:47:58;;;;;;;2.85;2.00;;;13.30;99.90;;;12.05;100.00;98592.50;4992751;28;20026;-78
2021/10/21 01:50:26;;;;;;;6.15;1.67;;;13.30;99.90;;;11.98;100.00;98588.72;4947996;28;21048;-78
2021/10/21 01:52:52;;;;;;;3.83;1.77;;;13.20;99.90;;;11.93;100.00;98567.19;4963449;28;22555;-78
2021/10/21 01:55:24;;;;;;;3.85;1.98;;;13.30;99.90;;;11.94;100.00;98573.28;4969663;28;20673;-78
2021/10/21 01:57:51;;;;;;;2.72;1.77;;;13.20;99.90;;;11.89;100.00;98571.06;4980981;28;20517;-78
2021/10/21 02:00:22;;;;;;;3.78;1.88;;;13.20;99.90;;;11.89;100.00;98577.16;4998853;28;20034;-78
2021/10/21 02:02:49;;;;;;;5.43;1.83;;;13.20;99.90;;;11.85;100.00;98593.34;4961793;28;20123;-79
2021/10/21 02:05:18;;;;;;;2.28;1.92;;;13.10;99.90;;;11.83;100.00;98579.47;4952624;28;20038;-78
2021/10/21 02:07:45;;;;;;;4.60;2.03;;;13.10;99.90;;;11.78;100.00;98576.41;4949333;28;20019;-78
2021/10/21 02:10:15;;;;;;;5.97;2.13;;;13.10;99.90;;;11.75;100.00;98561.69;4961368;28;20429;-78
2021/10/21 02:12:44;;;;;;;6.82;2.05;;;13.10;99.90;;;11.78;100.00;98565.84;4936891;28;20525;-79
2021/10/21 02:15:10;;;;;;;7.03;2.15;;;13.10;99.90;;;11.82;100.00;98554.06;4974577;28;20023;-78
2021/10/21 02:17:37;;;;;;;5.90;1.90;;;13.10;99.90;;;11.84;100.00;98536.31;4968731;28;20430;-78
2021/10/21 02:20:06;;;;;;;4.05;1.98;;;13.20;99.90;;;11.94;100.00;98524.00;4947968;28;20511;-78
2021/10/21 02:22:32;;;;;;;6.30;2.33;;;13.20;99.90;;;11.98;100.00;98498.22;4952805;28;20070;-78
2021/10/21 02:25:00;;;;;;;4.55;1.85;;;13.30;99.90;;;12.00;100.00;98498.91;4944058;28;20034;-79
2021/10/21 02:27:27;;;;;;;4.80;1.80;;;13.30;99.90;;;12.00;100.00;98483.09;4959840;28;20109;-78
2021/10/21 02:29:54;;;;;;;8.95;2.13;;;13.30;99.90;;;12.02;100.00;98457.41;4955495;28;20057;-78
2021/10/21 02:32:19;;;;;;;4.22;1.67;;;13.30;99.90;;;12.03;100.00;98470.47;4938583;28;20119;-78
2021/10/21 02:34:45;;;;;;;8.48;2.40;;;13.30;99.90;;;11.99;100.00;98455.06;4991821;28;20070;-78
2021/10/21 02:37:11;;;;;;;6.20;2.22;;;13.30;99.90;;;11.95;100.00;98457.13;4930153;28;20035;-79
2021/10/21 02:39:37;;;;;;;5.63;2.13;;;13.30;99.90;;;11.94;100.00;98475.72;4945365;28;20068;-78
2021/10/21 02:42:04;;;;;;;7.40;2.47;;;13.20;99.90;;;11.95;100.00;98457.13;4991447;28;20037;-78
2021/10/21 02:44:30;;;;;;;5.13;2.40;;;13.20;99.90;;;11.94;100.00;98467.81;4950244;28;20033;-78
2021/10/21 02:46:56;;;;;;;3.90;2.35;;;13.20;99.90;;;11.91;100.00;98450.44;4942244;28;20104;-78
2021/10/21 02:49:22;;;;;;;4.57;2.72;;;13.30;99.90;;;11.95;100.00;98449.22;4950709;28;20151;-78
2021/10/21 02:51:48;;;;;;;5.30;2.35;;;13.30;99.90;;;11.98;100.00;98433.09;4953368;28;20450;-78
2021/10/21 02:54:14;;;;;;;5.18;2.30;;;13.30;99.90;;;12.01;100.00;98427.56;4933071;28;20270;-78
2021/10/21 02:56:40;;;;;;;6.88;2.50;;;13.30;99.90;;;12.04;100.00;98432.56;4962581;28;20030;-78
2021/10/21 02:59:08;;;;;;;5.40;2.67;;;13.40;99.90;;;12.06;100.00;98425.34;4969547;28;20081;-79
2021/10/21 03:01:34;;;;;;;6.57;2.50;;;13.30;99.90;;;12.00;100.00;98427.69;4935433;28;20037;-78
2021/10/21 03:04:00;;;;;;;7.00;2.45;;;13.30;99.90;;;11.98;100.00;98417.28;4944290;28;20035;-78
2021/10/21 03:06:27;;;;;;;5.43;2.65;;;13.40;99.90;;;11.96;100.00;98410.47;4953685;28;20437;-78
2021/10/21 03:08:53;;;;;;;6.13;2.38;;;13.30;99.90;;;11.98;100.00;98419.09;4946353;28;20116;-78
2021/10/21 03:11:21;;;;;;;5.57;2.30;;;13.30;99.90;;;11.98;100.00;98417.28;4954917;28;20075;-78
2021/10/21 03:13:47;;;;;;;7.53;3.00;;;;;;;11.97;100.00;98399.81;4931936;28;20023;-79
2021/10/21 03:16:13;;;;;;;4.28;2.42;;;13.30;99.90;;;12.02;100.00;98400.22;4964330;28;20066;-78
2021/10/21 03:18:39;;;;;;;5.93;2.33;;;13.30;99.90;;;12.00;100.00;98394.25;4968657;28;20702;-78
2021/10/21 03:21:05;;;;;;;7.93;2.75;;;13.30;99.90;;;12.02;100.00;98391.47;4952627;28;20158;-78
2021/10/21 03:23:32;;;;;;;5.22;2.60;;;13.30;99.90;;;11.97;100.00;98383.97;4927336;28;20041;-80
2021/10/21 03:26:07;;;;;;;5.85;2.30;;;13.30;99.90;;;11.96;100.00;98389.38;4887761;28;20033;-81
2021/10/21 03:28:33;;;;;;;9.63;3.08;;;13.30;99.90;;;11.99;100.00;98376.78;4925017;28;20045;-81
2021/10/21 03:30:59;;;;;;;5.00;2.95;;;13.30;99.90;;;11.95;100.00;98383.28;4911282;28;20119;-81
2021/10/21 03:33:24;;;;;;;8.68;3.05;;;13.30;99.90;;;11.94;100.00;98362.31;4906803;28;20038;-83
2021/10/21 03:35:57;;;;;;;4.25;3.00;;;13.30;99.90;;;11.91;100.00;98350.25;4936246;28;20068;-82
2021/10/21 03:38:23;;;;;;;6.00;3.28;;;13.30;99.90;;;11.96;100.00;98344.56;4948086;28;21391;-82
2021/10/21 03:40:49;;;;;;;5.30;3.20;;;13.30;99.90;;;11.96;100.00;98350.66;4935734;28;20407;-81
2021/10/21 03:43:15;;;;;;;9.95;3.30;;;13.30;99.90;;;11.93;100.00;98343.03;4891834;28;20557;-81
2021/10/21 03:45:42;;;;;;;9.40;3.22;;;13.20;99.90;;;11.89;100.00;98344.28;4918137;28;20060;-81
2021/10/21 03:48:10;;;;;;;9.60;3.67;;;13.20;99.90;;;11.90;100.00;98343.31;4940869;28;20101;-81
2021/10/21 03:50:36;;;;;;;7.65;3.90;;;13.20;99.90;;;11.84;100.00;98336.75;4941354;28;20251;-81
2021/10/21 03:53:03;;;;;;;6.85;3.58;;;13.10;99.90;;;11.80;100.00;98334.53;4941849;28;20031;-81
2021/10/21 03:55:28;;;;;;;9.50;3.65;;;13.10;99.90;;;11.75;100.00;98319.13;4918077;28;20041;-81
2021/10/21 03:57:54;;;;;;;6.80;3.95;;;13.00;99.90;;;11.72;100.00;98331.75;4911910;28;20080;-81
2021/10/21 04:00:20;;;;;;;8.70;4.03;;;13.00;99.90;;;11.68;100.00;98321.50;4956983;28;20042;-84
2021/10/21 04:02:49;;;;;;;6.35;3.65;;;13.00;99.90;;;11.67;100.00;98317.16;4901431;28;20050;-83
2021/10/21 04:05:15;;;;;;;8.35;4.38;;;13.00;99.90;;;11.72;100.00;98322.03;4930077;28;20141;-82
2021/10/21 04:07:41;;;;;;;9.73;4.45;;;13.00;99.90;;;11.71;100.00;98312.47;4931100;28;20051;-82
2021/10/21 04:10:08;;;;;;;7.78;3.88;;;13.00;99.90;;;11.69;100.00;98311.75;4965254;28;20110;-81
2021/10/21 04:12:34;;;;;;;11.10;5.38;;;13.00;99.90;;;11.70;100.00;98301.09;4926705;28;20088;-81
2021/10/21 04:15:00;;;;;;;8.52;4.50;;;13.00;99.90;;;11.74;100.00;98303.44;4933682;28;20034;-81
2021/10/21 04:17:26;;;;;;;9.32;4.90;;;13.00;99.90;;;11.75;100.00;98297.19;4913757;28;20112;-81
2021/10/21 04:19:56;;;;;;;8.48;4.57;;;13.10;99.90;;;11.79;100.00;98295.94;4905104;28;20149;-81
2021/10/21 04:22:22;;;;;;;8.27;4.88;;;13.00;99.90;;;11.77;100.00;98275.00;4945909;28;20153;-82
2021/10/21 04:24:49;;;;;;;11.30;5.00;;;13.10;99.90;;;11.78;100.00;98279.28;4951712;28;20039;-81
2021/10/21 04:27:15;;;;;;;9.77;4.85;;;13.10;99.90;;;11.92;100.00;98270.16;4968460;28;20079;-81
2021/10/21 04:29:41;;;;;;;8.80;4.78;;;13.10;99.90;;;11.95;100.00;98267.25;4977169;28;20414;-82
2021/10/21 04:32:14;;;;;;;8.15;4.68;;;13.20;99.90;;;11.97;100.00;98269.75;4943948;28;20034;-81
2021/10/21 04:34:40;;;;;;;6.38;4.53;;;13.20;99.90;;;12.03;100.00;98267.38;4943766;28;20084;-81
2021/10/21 04:37:06;;;;;;;7.32;4.40;;;13.30;99.90;;;12.15;100.00;98257.50;4953183;28;20074;-81
2021/10/21 04:39:32;;;;;;;7.60;4.63;;;13.40;99.90;;;12.24;100.00;98271.66;4894657;28;20503;-80
2021/10/21 04:42:01;;;;;;;7.00;5.03;;;13.40;99.90;;;12.22;100.00;98244.56;4881505;28;20030;-81
2021/10/21 04:44:27;;;;;;;9.07;4.88;;;13.50;99.90;;;12.34;100.00;98242.63;4971286;28;20058;-82
2021/10/21 04:46:53;;;;;;;7.30;4.70;;;;;;;12.34;100.00;98230.25;4946068;28;20338;-81
2021/10/21 04:49:20;;;;;;;6.43;4.32;;;13.60;99.90;;;12.42;100.00;98230.38;4959059;28;20063;-81
2021/10/21 04:51:46;;;;;;;9.25;4.45;;;13.70;99.90;;;12.46;100.00;98220.34;4942308;28;20075;-82
2021/10/21 04:54:12;;;;;;;6.82;4.28;;;;;;;12.50;100.00;98217.28;4888744;28;20069;-81
2021/10/21 04:56:38;;;;;;;6.90;3.90;;;13.80;99.90;;;12.52;100.00;98194.19;4920166;28;20122;-81
2021/10/21 04:59:08;;;;;;;9.82;4.18;;;13.80;99.90;;;12.55;100.00;98163.19;4900428;28;20083;-82
2021/10/21 05:01:34;;;;;;;8.98;3.63;;;13.80;99.90;;;12.58;100.00;98168.19;4914895;28;20070;-81
2021/10/21 05:04:00;;;;;;;8.02;3.75;;;13.80;99.90;;;12.56;100.00;98126.09;4943795;28;20031;-81
2021/10/21 05:06:26;;;;;;;5.70;3.40;;;13.80;99.90;;;12.67;100.00;98146.19;4923473;28;20152;-82
2021/10/21 05:08:53;;;;;;;9.50;4.18;;;13.90;99.90;;;12.78;100.00;98150.44;4920550;28;20029;-81
2021/10/21 05:11:28;;;;;;;4.13;2.95;;;;;;;12.73;100.00;98106.00;4903454;28;20030;-81
2021/10/21 05:13:54;;;;;;;5.30;3.10;;;13.90;99.90;;;12.73;100.00;98077.78;4932741;28;20067;-81
2021/10/21 05:16:20;;;;;;;4.97;3.42;;;14.00;99.90;;;12.74;100.00;98068.03;4930780;28;20046;-81
2021/10/21 05:18:57;;;;;;;5.78;2.92;;;14.00;99.90;;;12.72;100.00;98062.09;4921107;28;20073;-81
2021/10/21 05:21:23;;;;;;;5.43;2.88;;;;;;;12.83;100.00;98053.09;4953541;28;20026;-81
2021/10/21 05:23:49;;;;;;;5.20;2.70;;;14.10;99.90;;;12.84;100.00;98052.97;4946336;28;20072;-81
2021/10/21 05:26:23;;;;;;;3.38;2.38;;;14.10;99.90;;;12.82;100.00;98025.06;4943527;28;20033;-82
2021/10/21 05:28:49;;;;;;;4.32;2.42;;;14.10;99.90;;;12.90;100.00;97999.53;4912117;28;20057;-81
2021/10/21 05:31:15;;;;;;;4.40;2.67;;;14.20;99.90;;;12.97;100.00;97999.75;4923898;28;20471;-82
2021/10/21 05:33:50;;;;;;;3.53;2.20;;;14.20;99.90;;;13.00;100.00;97969.56;4917160;28;20033;-81
2021/10/21 05:36:16;;;;;;;4.85;2.50;;;14.20;99.90;;;12.93;100.00;97983.38;4918366;28;20049;-82
2021/10/21 05:38:42;;;;;;;8.15;2.70;;;14.20;99.90;;;12.98;100.00;98014.63;4903947;28;20042;-81
2021/10/21 05:41:08;;;;;;;4.22;1.88;;;14.30;99.90;;;13.09;100.00;98016.22;4903567;28;20045;-81
2021/10/21 05:43:34;;;;;;;5.65;1.80;;;14.30;99.90;;;13.18;100.00;97996.78;4922139;28;20129;-81
2021/10/21 05:46:07;;;;;;;5.07;1.98;;;14.50;99.90;;;13.26;100.00;97974.84;4932408;28;20048;-81
2021/10/21 05:48:33;;;;;;;2.80;1.58;;;14.40;99.90;;;13.30;100.00;97934.81;4926560;28;20058;-82
2021/10/21 05:51:00;;;;;;;7.97;1.60;;;14.50;99.90;;;13.21;100.00;97829.19;4932322;28;20374;-81
2021/10/21 05:53:27;;;;;;;5.20;1.27;;;14.40;99.90;;;13.23;100.00;97875.59;4967226;28;20054;-81
2021/10/21 05:55:56;;;;;;;2.22;1.27;;;14.40;99.90;;;13.21;100.00;97896.06;4913034;28;20113;-81
2021/10/21 05:58:22;;;;;;;1.65;1.13;;;14.40;99.90;;;13.18;100.00;97896.38;4969929;28;20107;-81
2021/10/21 06:00:48;;;;;;;2.72;1.48;;;14.50;99.90;;;13.28;100.00;97893.63;4947569;28;20030;-81
2021/10/21 06:03:14;;;;;;;3.40;1.45;;;14.50;99.90;;;13.31;100.00;97878.31;4954772;28;20032;-81
2021/10/21 06:05:40;;;;;;;2.35;1.30;;;14.50;99.90;;;13.34;100.00;97877.97;4953513;28;20030;-81
2021/10/21 06:08:06;;;;;;;1.13;1.02;;;14.60;99.90;;;13.39;100.00;97866.13;4923711;28;20074;-81
2021/10/21 06:10:32;;;;;;;1.48;1.00;;;14.60;99.90;;;13.47;100.00;97866.16;4917331;28;20049;-82
2021/10/21 06:13:05;;;;;;;3.47;1.00;;;14.60;99.90;;;13.43;100.00;97854.22;4937580;28;20468;-81
2021/10/21 06:15:31;;;;;;;3.53;1.20;;;14.70;99.90;;;13.43;100.00;97848.94;4915652;28;20125;-81
2021/10/21 06:18:01;;;;;;;2.35;0.98;;;14.60;99.90;;;13.45;99.51;97857.56;4913860;28;20035;-81
2021/10/21 06:20:27;;;;;;;1.20;0.82;;;;;;;13.54;97.63;97852.16;4933412;28;20023;-82
2021/10/21 06:22:53;;;;;;;5.65;1.13;;;14.80;99.90;;;13.70;95.68;97861.94;4943991;28;20038;-81
2021/10/21 06:25:19;;;;;;;2.60;1.05;;;14.80;99.90;;;13.57;96.23;97864.22;4954721;28;20029;-81
2021/10/21 06:27:45;;;;;;;3.50;0.80;;;14.80;99.90;;;13.52;96.01;97858.59;4924982;28;20139;-81
2021/10/21 06:30:11;;;;;;;1.98;0.95;;;14.80;99.90;;;13.67;94.94;97850.84;4966761;28;20038;-81
2021/10/21 06:32:43;;;;;;;2.10;0.80;;;14.80;99.90;;;13.61;94.57;97833.81;4946736;28;21205;-80
2021/10/21 06:35:14;;;;;;;0.70;0.70;;;14.80;99.90;;;13.59;94.62;97848.19;4937603;28;20136;-80
2021/10/21 06:37:40;;;;;;;3.80;1.10;;;14.80;99.90;;;13.50;95.11;97831.47;4956967;28;20461;-80
2021/10/21 06:40:07;;;;;;;2.70;0.82;;;14.70;99.90;;;13.50;95.06;97836.78;4959974;28;20063;-81
2021/10/21 06:42:36;;;;;;;2.83;0.70;;;14.70;99.90;;;13.64;94.02;97854.63;4945119;28;20113;-81
2021/10/21 06:45:03;;;;;;;1.35;0.77;;;14.90;99.90;;;13.80;92.59;97885.59;4945595;28;20067;-80
2021/10/21 06:47:29;;;;;;;0.93;0.57;;;15.00;99.90;;;13.84;91.87;97918.66;4985901;28;20056;-80
2021/10/21 06:49:55;;;;;;;1.08;0.38;;;14.70;99.90;;;12.60;90.38;97947.97;4953186;28;20022;-81
2021/10/21 06:52:49;;;;;;;8.15;0.63;;;12.40;99.90;;;10.53;93.66;97851.78;4932413;28;20189;-83
2021/10/21 06:57:57;;;;;;;1.65;0.63;;;11.50;99.90;;;10.29;100.00;97879.38;4914996;28;20152;-83
2021/10/21 07:00:43;;;;;;;0.57;0.32;;;11.80;99.90;;;10.54;100.00;97883.22;4900832;28;20099;-85
2021/10/21 07:03:12;;;;;;;1.15;0.45;;;;;;;10.61;100.00;97880.88;4924826;28;24429;-83
2021/10/21 07:05:39;;;;;;;4.15;0.32;;;11.80;99.90;;;10.46;100.00;97862.06;4934043;28;20058;-83
2021/10/21 07:08:33;;;;;;;4.45;0.57;;;11.70;99.90;;;10.31;100.00;97866.91;4924822;28;20117;-83
2021/10/21 07:11:01;;;;;;;2.65;0.57;;;11.60;99.90;;;10.25;100.00;97864.81;4930669;28;20407;-83
2021/10/21 07:13:37;;;;;;;4.65;0.63;;;11.60;99.90;;;10.31;100.00;97893.22;4896915;28;20509;-84
2021/10/21 07:16:05;;;;;;;2.17;0.70;;;11.60;99.90;;;10.31;100.00;97901.09;4900659;28;20058;-84
2021/10/21 07:18:40;;;;;;;4.35;0.70;;;11.70;99.90;;;10.40;100.00;97926.56;4907442;28;20510;-83
2021/10/21 07:21:08;;;;;;;5.82;0.45;;;11.70;99.90;;;10.38;100.00;97909.25;4909196;28;20503;-83
2021/10/21 07:23:44;;;;;;;1.88;0.60;;;11.70;99.90;;;10.41;100.00;97899.31;4910641;28;20080;-83
2021/10/21 07:26:10;;;;;;;3.28;0.47;;;11.60;99.90;;;10.31;100.00;97871.34;4896584;28;20034;-82
2021/10/21 07:28:45;;;;;;;1.75;0.60;;;11.60;99.90;;;10.33;100.00;97869.41;4861642;28;20422;-83
2021/10/21 07:31:14;;;;;;;1.73;0.52;;;;;;;10.33;100.00;97859.72;4878285;28;20075;-82
2021/10/21 07:33:40;;;;;;;1.63;0.50;;;11.70;99.90;;;10.37;100.00;97865.53;4908754;28;20070;-83
2021/10/21 07:36:19;;;;;;;1.15;0.40;;;;;;;10.39;100.00;97864.41;4886280;28;20116;-82
2021/10/21 07:38:56;;;;;;;4.38;0.60;;;11.90;99.90;;;10.97;100.00;97899.47;4891724;28;20100;-83
2021/10/21 07:41:27;;;;;;;0.73;0.20;;;12.80;99.90;;;12.48;96.95;97939.47;4935588;28;20061;-82
2021/10/21 07:43:54;;;;;;;1.95;0.40;;;;;;;13.81;87.94;97989.56;4909385;28;20065;-83
2021/10/21 07:46:20;;;;;;;4.88;0.50;;;14.40;99.90;;;14.25;82.57;97976.16;4900384;28;20113;-85
2021/10/21 07:48:50;;;;;;;0.25;0.20;;;14.70;99.90;;;14.52;80.28;97983.81;4936971;28;20335;-82
2021/10/21 07:51:17;;;;;;;3.72;0.38;;;14.90;99.90;;;14.70;77.70;97981.03;4952955;28;20037;-82
2021/10/21 07:53:46;;;;;;;1.75;0.30;;;15.10;99.90;;;14.94;76.21;97977.56;4896721;28;20035;-81
2021/10/21 07:56:12;;;;;;;1.92;0.35;;;15.10;99.90;;;14.76;76.24;97983.03;4882434;28;20970;-82
2021/10/21 07:58:38;;;;;;;2.30;0.40;;;;;;;14.50;77.28;97956.66;4920486;28;20045;-82
2021/10/21 08:01:04;;;;;;;5.72;0.30;;;14.70;99.90;;;13.94;79.37;97929.09;4914301;28;20408;-82
2021/10/21 08:03:30;;;;;;;1.92;0.30;;;;;;;13.23;82.35;97885.34;4919788;28;20038;-84
2021/10/21 08:05:57;;;;;;;1.33;0.30;;;;;;;12.88;85.78;97905.63;4908988;28;20368;-82
2021/10/21 08:08:30;;;;;;;3.42;0.45;;;14.00;99.90;;;13.21;83.99;97913.72;4933020;28;20039;-83
2021/10/21 08:10:59;;;;;;;5.47;0.32;;;14.20;99.90;;;13.37;83.54;97907.72;4904667;28;20042;-82
2021/10/21 08:13:25;;;;;;;1.33;0.52;;;13.90;99.90;;;12.71;85.07;97873.00;4869451;28;20031;-82
2021/10/21 08:16:00;;;;;;;2.50;0.38;;;13.60;99.90;;;12.40;87.33;97854.13;4917320;28;20033;-86
2021/10/21 08:18:26;;;;;;;1.65;0.40;;;13.60;99.90;;;12.61;87.70;97891.59;4948726;28;20088;-82
2021/10/21 08:20:52;;;;;;;3.30;0.50;;;13.90;99.90;;;13.24;85.42;97918.69;4894881;28;20093;-82
2021/10/21 08:23:23;;;;;;;6.53;0.40;;;;;;;14.59;79.05;97977.91;4908397;28;20571;-82
2021/10/21 08:25:52;;;;;;;1.05;0.30;;;;;;;13.65;79.94;97882.75;4884350;28;20031;-82
2021/10/21 08:28:18;;;;;;;0.43;0.20;;;;;;;14.83;78.63;97990.31;4905619;28;20070;-82
2021/10/21 08:30:44;;;;;;;1.25;0.38;;;15.80;99.90;;;16.07;72.59;98027.06;4932625;28;20033;-82
2021/10/21 08:35:14;;;;;;;1.38;0.30;;;15.50;99.90;;;14.32;77.45;97903.06;4976899;27;20385;-83
2021/10/21 08:37:40;;;;;;;1.20;0.45;;;14.70;99.90;;;13.44;82.19;97842.69;4929891;28;20512;-84
2021/10/21 08:40:15;;;;;;;1.98;0.43;;;14.30;99.90;;;13.00;84.53;97822.50;4983198;28;20555;-83
2021/10/21 08:42:42;;;;;;;0.82;0.30;;;;;;;12.73;86.09;97807.66;4981934;28;20108;-85
2021/10/21 08:45:08;;;;;;;1.65;0.60;;;13.80;99.90;;;12.58;87.16;97806.59;4963360;28;20025;-83
2021/10/21 08:47:55;;;;;;;1.35;0.35;;;13.70;99.90;;;12.50;86.49;97804.72;4929459;28;20042;-87
2021/10/21 08:50:23;;;;;;;4.35;0.40;;;13.70;99.90;;;12.47;87.61;97800.56;4902762;28;20078;-82
2021/10/21 08:52:50;;;;;;;2.35;0.40;;;13.70;99.90;;;12.56;87.09;97804.09;4901844;28;20452;-83
2021/10/21 08:55:16;;;;;;;3.50;0.40;;;13.80;99.90;;;12.66;86.55;97793.44;4950450;28;20134;-83
2021/10/21 08:57:43;;;;;;;0.68;0.30;;;13.90;99.90;;;12.80;85.41;97799.94;4927755;28;20030;-83
2021/10/21 09:00:16;;;;;;;2.45;0.43;;;;;;;12.90;84.41;97782.19;5011806;28;20067;-83
2021/10/21 09:03:03;;;;;;;1.95;0.65;;;14.20;99.90;;;13.01;82.64;97794.28;4983770;28;20490;-84
2021/10/21 09:05:52;;;;;;;1.35;0.40;;;14.20;99.90;;;13.03;82.46;97768.53;4948958;28;20124;-83
2021/10/21 09:08:50;;;;;;;2.20;0.35;;;14.30;99.90;;;13.24;81.67;97776.88;4926220;28;20389;-83
2021/10/21 09:11:41;;;;;;;0.65;0.30;;;14.30;99.90;;;13.16;79.71;97757.50;4977575;28;20037;-82
2021/10/21 09:14:13;;;;;;;1.98;0.20;;;14.30;99.90;;;13.06;78.54;97737.31;4950714;28;20416;-82
2021/10/21 09:17:19;;;;;;;0.38;0.20;;;14.20;99.90;;;13.02;78.93;97740.44;4933908;28;20113;-83
2021/10/21 09:20:23;;;;;;;0.63;0.20;;;14.20;99.90;;;12.96;78.68;97723.44;4949377;28;20168;-82
2021/10/21 09:23:05;;;;;;;1.17;0.30;;;14.10;99.90;;;12.84;79.94;97733.44;4962560;28;20516;-80
2021/10/21 09:25:54;;;;;;;4.25;0.35;;;13.90;99.90;;;12.71;81.52;97722.50;4972937;28;20068;-82
2021/10/21 09:28:43;;;;;;;0.22;0.20;;;13.90;99.90;;;12.62;82.06;97713.72;4983858;28;20025;-81
2021/10/21 09:31:42;;;;;;;3.33;0.30;;;13.90;99.90;;;12.66;83.09;97716.88;4947233;28;20023;-82
2021/10/21 09:34:32;;;;;;;1.77;0.20;;;13.90;99.90;;;12.77;82.70;97711.31;4981295;28;20048;-82
2021/10/21 09:37:08;;;;;;;3.13;0.30;;;14.00;99.90;;;12.93;82.27;97716.66;4993754;28;20070;-82
2021/10/21 09:40:24;;;;;;;4.28;0.60;;;14.20;99.90;;;13.12;82.54;97722.66;4966382;28;20121;-80
2021/10/21 09:43:15;;;;;;;2.60;0.73;;;14.30;99.90;;;13.04;82.89;97702.31;4987771;28;20555;-82
2021/10/21 09:45:58;;;;;;;0.40;0.30;;;14.10;99.90;;;12.77;83.93;97690.19;4938983;28;20615;-81
2021/10/21 09:49:25;;;;;;;3.13;0.32;;;13.90;99.90;;;12.58;83.50;97717.66;4961140;28;20093;-81
2021/10/21 09:52:49;;;;;;;0.20;0.20;;;13.70;99.90;;;12.41;84.52;97679.81;4954789;28;20091;-81
2021/10/21 09:55:33;;;;;;;3.05;0.20;;;13.50;99.90;;;12.25;86.28;97656.81;4966507;28;20833;-79
2021/10/21 09:58:50;;;;;;;1.67;0.35;;;13.40;99.90;;;12.12;87.64;97672.25;4956125;28;20041;-81
2021/10/21 10:01:38;;;;;;;1.48;0.30;;;13.30;99.90;;;11.96;88.15;97722.22;4962719;28;20639;-79
2021/10/21 10:04:44;;;;;;;8.48;0.25;;;13.10;99.90;;;11.78;90.25;97709.88;4954096;28;20029;-81
2021/10/21 10:07:57;;;;;;;1.95;0.20;;;13.00;99.90;;;11.61;93.05;97693.09;4966267;28;20490;-81
2021/10/21 10:11:30;;;;;;;7.00;0.40;;;12.80;99.90;;;11.52;93.82;97694.00;4958220;28;20427;-81
2021/10/21 10:14:14;;;;;;;8.77;0.50;;;12.80;99.90;;;11.50;94.09;97677.53;4941585;28;21526;-83
2021/10/21 10:17:45;;;;;;;1.85;0.40;;;12.70;99.90;;;11.40;94.85;97684.66;4912675;28;20586;-83
2021/10/21 10:24:58;;;;;;;2.15;0.25;;;;;;;11.10;98.48;97673.56;4967224;28;20059;-86
2021/10/21 10:35:00;;;;;;;1.10;0.20;;;;;;;10.68;100.00;97653.00;5555346;23;20045;-84
2021/10/21 10:38:08;;;;;;;0.73;0.10;;;12.00;99.90;;;10.65;100.00;97669.94;4894630;28;20197;-86
2021/10/21 10:46:11;;;;;;;9.02;0.50;;;11.80;99.90;;;10.51;100.00;97674.84;4786119;29;20052;-84
2021/10/21 10:50:00;;;;;;;2.72;0.25;;;11.70;99.90;;;10.40;100.00;97695.09;4767361;29;20045;-84
2021/10/21 10:53:43;;;;;;;1.33;0.17;;;11.70;99.90;;;10.32;100.00;97729.16;4779293;29;20080;-85
2021/10/21 10:56:31;;;;;;;1.23;0.20;;;;;;;10.37;100.00;97739.28;4781218;29;20037;-84
2021/10/21 11:00:03;;;;;;;0.50;0.10;;;11.70;99.90;;;10.46;100.00;97755.03;4773574;29;20049;-84
2021/10/21 11:03:16;;;;;;;2.08;0.20;;;;;;;10.45;100.00;97768.31;4777758;29;20068;-83
2021/10/21 11:06:42;;;;;;;0.10;0.00;;;11.60;99.90;;;10.27;100.00;97774.28;4780899;29;20065;-84